Terminal Aerodrome Forecast
Issued by NWS

Home | Current Version | Previous Version | Text Only | Print | Product List | Glossary On
Versions: 1 2 3 4 5 6 7 8 9 10 11 12 13 14 15 16
000
FTUS44 KCRP 201100
TAFLRD
TAF
KLRD 201137Z 2012/2112 12009KT P6SM VCSH SCT007 BKN012
      TEMPO 2012/2016 5SM -SHRA BR BKN007 OVC012
     FM201600 14012KT P6SM VCSH OVC015
     FM201900 14015KT P6SM VCTS BKN035CB
      TEMPO 2019/2023 5SM -TSRA OVC030CB
     FM210200 11015KT P6SM BKN040
     FM210900 12007KT P6SM OVC020=

USA.gov is the U.S. government's official web portal to all federal, state and local government web resources and services.